createdAt,value
2019-04-07T00:00:10.813Z,18.85
2019-04-07T00:01:11.659Z,18.87
2019-04-07T00:02:10.818Z,18.83
2019-04-07T00:03:10.907Z,18.87
2019-04-07T00:04:11.164Z,18.85
2019-04-07T00:05:15.133Z,18.83
2019-04-07T00:06:11.172Z,18.81
2019-04-07T00:07:10.762Z,18.81
2019-04-07T00:08:11.388Z,18.8
2019-04-07T00:09:11.012Z,18.83
2019-04-07T00:10:11.303Z,18.8
2019-04-07T00:11:10.826Z,18.81
2019-04-07T00:12:11.325Z,18.81
2019-04-07T00:13:11.016Z,18.81
2019-04-07T00:14:11.342Z,18.83
2019-04-07T00:15:11.558Z,18.83
2019-04-07T00:16:11.082Z,18.83
2019-04-07T00:17:12.366Z,18.83
2019-04-07T00:18:10.931Z,18.83
2019-04-07T00:19:11.367Z,18.83
2019-04-07T00:20:10.982Z,18.83
2019-04-07T00:21:11.491Z,18.8
2019-04-07T00:22:11.490Z,18.81
2019-04-07T00:23:10.883Z,18.8
2019-04-07T00:24:11.021Z,18.78
2019-04-07T00:25:10.924Z,18.8
2019-04-07T00:26:11.572Z,18.8
2019-04-07T00:27:10.860Z,18.8
2019-04-07T00:28:11.010Z,18.8
2019-04-07T00:29:11.154Z,18.8
2019-04-07T00:30:11.038Z,18.78
2019-04-07T00:31:11.109Z,18.8
2019-04-07T00:32:11.374Z,18.78
2019-04-07T00:33:11.566Z,18.78
2019-04-07T00:34:11.073Z,18.78
2019-04-07T00:35:33.718Z,18.75
2019-04-07T00:36:10.768Z,18.8
2019-04-07T00:37:11.834Z,18.78
2019-04-07T00:38:10.850Z,18.75
2019-04-07T00:39:11.629Z,18.8
2019-04-07T00:40:10.929Z,18.78
2019-04-07T00:41:11.214Z,18.77
2019-04-07T00:42:12.187Z,18.8
2019-04-07T00:43:11.134Z,18.77
2019-04-07T00:44:11.659Z,18.77
2019-04-07T00:45:10.953Z,18.77
2019-04-07T00:46:11.775Z,18.77
2019-04-07T00:47:10.928Z,18.77
2019-04-07T00:48:10.917Z,18.77
2019-04-07T00:49:11.706Z,18.77
2019-04-07T00:50:10.978Z,18.77
2019-04-07T00:51:11.395Z,18.77
2019-04-07T00:52:11.011Z,18.75
2019-04-07T00:53:11.184Z,18.74
2019-04-07T00:54:10.784Z,18.74
2019-04-07T00:55:13.252Z,18.74
2019-04-07T00:56:11.733Z,18.75
2019-04-07T00:57:11.152Z,18.74
2019-04-07T00:58:11.643Z,18.77
2019-04-07T00:59:11.159Z,18.74
2019-04-07T01:00:10.884Z,18.75
2019-04-07T01:01:11.793Z,18.75
2019-04-07T01:02:10.961Z,18.71
2019-04-07T01:03:11.528Z,18.75
2019-04-07T01:04:11.380Z,18.73
2019-04-07T01:05:11.699Z,18.74
2019-04-07T01:06:11.686Z,18.74
2019-04-07T01:07:11.609Z,18.74
2019-04-07T01:08:11.029Z,18.73
2019-04-07T01:09:11.090Z,18.71
2019-04-07T01:10:11.338Z,18.73
2019-04-07T01:11:11.536Z,18.74
2019-04-07T01:12:11.026Z,18.73
2019-04-07T01:13:10.934Z,18.71
2019-04-07T01:14:11.140Z,18.71
2019-04-07T01:15:11.160Z,18.73
2019-04-07T01:16:11.053Z,18.71
2019-04-07T01:17:11.415Z,18.73
2019-04-07T01:18:10.814Z,18.73
2019-04-07T01:19:10.924Z,18.71
2019-04-07T01:20:11.830Z,18.73
2019-04-07T01:21:10.903Z,18.73
2019-04-07T01:22:11.322Z,18.7
2019-04-07T01:23:10.902Z,18.71
2019-04-07T01:24:10.925Z,18.71
2019-04-07T01:25:11.531Z,18.7
2019-04-07T01:26:11.444Z,18.71
2019-04-07T01:27:11.766Z,18.71
2019-04-07T01:28:11.239Z,18.7
2019-04-07T01:29:10.999Z,18.68
2019-04-07T01:30:10.771Z,18.7
2019-04-07T01:31:10.776Z,18.7
2019-04-07T01:32:11.497Z,18.71
2019-04-07T01:33:10.787Z,18.7
2019-04-07T01:34:10.835Z,18.68
2019-04-07T01:35:11.404Z,18.68
2019-04-07T01:36:11.503Z,18.7
2019-04-07T01:37:11.086Z,18.68
2019-04-07T01:38:11.490Z,18.68
2019-04-07T01:39:10.930Z,18.68
2019-04-07T01:40:10.913Z,18.67
2019-04-07T01:41:11.961Z,18.7
2019-04-07T01:42:11.709Z,18.67
2019-04-07T01:43:10.972Z,18.67
2019-04-07T01:44:11.482Z,18.67
2019-04-07T01:45:11.662Z,18.67
2019-04-07T01:46:11.283Z,18.66
2019-04-07T01:47:11.603Z,18.66
2019-04-07T01:48:11.693Z,18.66
2019-04-07T01:49:11.918Z,18.68
2019-04-07T01:50:11.205Z,18.67
2019-04-07T01:51:10.994Z,18.66
2019-04-07T01:52:11.110Z,18.7
2019-04-07T01:53:10.746Z,18.64
2019-04-07T01:54:10.806Z,18.66
2019-04-07T01:55:11.531Z,18.64
2019-04-07T01:56:11.020Z,18.66
2019-04-07T01:57:10.846Z,18.64
2019-04-07T01:58:10.947Z,18.66
2019-04-07T01:59:12.393Z,18.66
2019-04-07T02:00:11.394Z,18.66
2019-04-07T02:01:11.028Z,18.64
2019-04-07T02:02:11.087Z,18.64
2019-04-07T02:03:11.306Z,18.64
2019-04-07T02:04:10.870Z,18.63
2019-04-07T02:05:11.059Z,18.66
2019-04-07T02:06:10.732Z,18.62
2019-04-07T02:07:10.920Z,18.63
2019-04-07T02:08:12.150Z,18.64
2019-04-07T02:09:11.360Z,18.63
2019-04-07T02:10:11.822Z,18.63
2019-04-07T02:11:11.556Z,18.63
2019-04-07T02:12:11.730Z,18.63
2019-04-07T02:13:11.264Z,18.63
2019-04-07T02:14:11.490Z,18.63
2019-04-07T02:15:11.504Z,18.6
2019-04-07T02:16:11.600Z,18.62
2019-04-07T02:17:11.105Z,18.62
2019-04-07T02:18:11.587Z,18.63
2019-04-07T02:19:11.303Z,18.6
2019-04-07T02:20:11.510Z,18.6
2019-04-07T02:21:11.112Z,18.62
2019-04-07T02:22:11.331Z,18.62
2019-04-07T02:23:11.783Z,18.6
2019-04-07T02:24:13.037Z,18.62
2019-04-07T02:25:11.042Z,18.63
2019-04-07T02:26:11.660Z,18.63
2019-04-07T02:27:10.714Z,18.58
2019-04-07T02:28:11.281Z,18.6
2019-04-07T02:29:10.781Z,18.62
2019-04-07T02:30:10.753Z,18.6
2019-04-07T02:31:10.953Z,18.6
2019-04-07T02:32:10.965Z,18.58
2019-04-07T02:33:11.117Z,18.6
2019-04-07T02:34:12.145Z,18.58
2019-04-07T02:35:10.880Z,18.6
2019-04-07T02:36:32.186Z,18.57
2019-04-07T02:37:11.973Z,18.6
2019-04-07T02:38:19.479Z,18.58
2019-04-07T02:39:11.461Z,18.58
2019-04-07T02:40:12.281Z,18.58
2019-04-07T02:41:12.176Z,18.6
2019-04-07T02:42:11.369Z,18.6
2019-04-07T02:43:10.971Z,18.58
2019-04-07T02:44:11.099Z,18.6
2019-04-07T02:45:11.311Z,18.58
2019-04-07T02:46:11.316Z,18.6
2019-04-07T02:47:10.898Z,18.58
2019-04-07T02:48:10.976Z,18.57
2019-04-07T02:49:12.422Z,18.57
2019-04-07T02:50:10.904Z,18.57
2019-04-07T02:51:11.342Z,18.58
2019-04-07T02:52:11.459Z,18.58
2019-04-07T02:53:11.408Z,18.57
2019-04-07T02:54:10.947Z,18.56
2019-04-07T02:55:11.203Z,18.56
2019-04-07T02:56:11.022Z,18.57
2019-04-07T02:57:10.926Z,18.56
2019-04-07T02:58:10.956Z,18.53
2019-04-07T02:59:14.813Z,18.56
2019-04-07T03:00:12.295Z,18.56
2019-04-07T03:01:11.727Z,18.56
2019-04-07T03:02:12.160Z,18.56
2019-04-07T03:03:11.164Z,18.54
2019-04-07T03:04:12.133Z,18.53
2019-04-07T03:05:12.266Z,18.54
2019-04-07T03:06:26.315Z,18.54
2019-04-07T03:07:11.617Z,18.54
2019-04-07T03:08:12.281Z,18.53
2019-04-07T03:09:11.198Z,18.53
2019-04-07T03:10:11.088Z,18.53
2019-04-07T03:11:10.983Z,18.56
2019-04-07T03:12:10.848Z,18.56
2019-04-07T03:13:11.004Z,18.51
2019-04-07T03:14:12.626Z,18.53
2019-04-07T03:15:11.488Z,18.51
2019-04-07T03:16:11.107Z,18.51
2019-04-07T03:17:12.067Z,18.53
2019-04-07T03:18:10.932Z,18.51
2019-04-07T03:19:11.235Z,18.53
2019-04-07T03:20:12.015Z,18.53
2019-04-07T03:21:13.322Z,18.5
2019-04-07T03:22:11.468Z,18.5
2019-04-07T03:23:10.815Z,18.51
2019-04-07T03:24:12.759Z,18.51
2019-04-07T03:25:11.505Z,18.51
2019-04-07T03:26:16.503Z,18.5
2019-04-07T03:27:11.032Z,18.51
2019-04-07T03:28:13.905Z,18.5
2019-04-07T03:29:12.169Z,18.53
2019-04-07T03:30:15.524Z,18.53
2019-04-07T03:31:24.313Z,18.51
2019-04-07T03:32:29.799Z,18.5
2019-04-07T03:33:32.572Z,18.51
2019-04-07T03:34:16.212Z,18.5
2019-04-07T03:35:33.998Z,18.53
2019-04-07T03:36:35.414Z,18.5
2019-04-07T03:38:12.377Z,18.51
2019-04-07T03:39:11.296Z,18.5
2019-04-07T03:40:14.065Z,18.5
2019-04-07T03:41:12.279Z,18.53
2019-04-07T03:42:11.007Z,18.5
2019-04-07T03:43:10.791Z,18.53
2019-04-07T03:44:14.419Z,18.51
2019-04-07T03:45:11.545Z,18.54
2019-04-07T03:46:10.796Z,18.54
2019-04-07T03:47:11.241Z,18.54
2019-04-07T03:48:11.053Z,18.54
2019-04-07T03:49:11.544Z,18.54
2019-04-07T03:50:12.630Z,18.56
2019-04-07T03:51:11.296Z,18.57
2019-04-07T03:52:12.101Z,18.57
2019-04-07T03:53:11.019Z,18.57
2019-04-07T03:54:11.006Z,18.57
2019-04-07T03:55:11.127Z,18.58
2019-04-07T03:56:11.056Z,18.6
2019-04-07T03:57:11.520Z,18.64
2019-04-07T03:58:10.759Z,18.64
2019-04-07T03:59:11.243Z,18.67
2019-04-07T04:00:10.888Z,18.68
2019-04-07T04:01:10.883Z,18.68
2019-04-07T04:02:12.437Z,18.73
2019-04-07T04:03:11.250Z,18.71
2019-04-07T04:04:10.939Z,18.73
2019-04-07T04:05:10.883Z,18.74
2019-04-07T04:06:14.080Z,18.74
2019-04-07T04:07:39.807Z,18.77
2019-04-07T04:08:11.575Z,18.8
2019-04-07T04:09:11.610Z,18.81
2019-04-07T04:10:11.050Z,18.83
2019-04-07T04:11:11.912Z,18.83
2019-04-07T04:12:11.971Z,18.85
2019-04-07T04:13:12.525Z,18.84
2019-04-07T04:14:11.312Z,18.88
2019-04-07T04:15:11.020Z,18.88
2019-04-07T04:16:10.946Z,18.91
2019-04-07T04:17:12.919Z,18.91
2019-04-07T04:18:12.186Z,18.92
2019-04-07T04:19:11.385Z,18.94
2019-04-07T04:20:10.988Z,18.95
2019-04-07T04:21:11.472Z,18.98
2019-04-07T04:22:14.306Z,18.95
2019-04-07T04:23:12.904Z,18.98
2019-04-07T04:24:10.808Z,18.98
2019-04-07T04:25:11.164Z,19.01
2019-04-07T04:26:10.962Z,19.01
2019-04-07T04:27:11.219Z,19.02
2019-04-07T04:28:10.858Z,19.03
2019-04-07T04:29:10.810Z,19.02
2019-04-07T04:30:13.679Z,19.03
2019-04-07T04:31:11.369Z,19.03
2019-04-07T04:32:11.624Z,19.06
2019-04-07T04:33:10.964Z,19.05
2019-04-07T04:34:12.207Z,19.03
2019-04-07T04:35:11.209Z,19.05
2019-04-07T04:36:10.819Z,19.05
2019-04-07T04:37:11.380Z,19.09
2019-04-07T04:38:10.953Z,19.09
2019-04-07T04:39:10.787Z,19.08
2019-04-07T04:40:10.974Z,19.02
2019-04-07T04:41:11.544Z,18.94
2019-04-07T04:42:11.745Z,18.85
2019-04-07T04:43:10.978Z,18.8
2019-04-07T04:44:10.864Z,18.74
2019-04-07T04:45:10.893Z,18.66
2019-04-07T04:46:15.364Z,18.62
2019-04-07T04:47:11.016Z,18.56
2019-04-07T04:48:12.220Z,18.53
2019-04-07T04:49:12.091Z,18.47
2019-04-07T04:50:11.132Z,18.43
2019-04-07T04:51:13.382Z,18.39
2019-04-07T04:52:11.837Z,18.32
2019-04-07T04:53:11.017Z,18.28
2019-04-07T04:54:11.317Z,18.25
2019-04-07T04:55:11.859Z,18.22
2019-04-07T04:56:11.170Z,18.16
2019-04-07T04:57:11.566Z,18.13
2019-04-07T04:58:11.563Z,18.09
2019-04-07T04:59:13.078Z,18.08
2019-04-07T05:00:10.964Z,18.05
2019-04-07T05:01:10.882Z,18.01
2019-04-07T05:02:11.051Z,18.04
2019-04-07T05:03:11.109Z,18.07
2019-04-07T05:04:12.457Z,18.12
2019-04-07T05:05:11.285Z,18.19
2019-04-07T05:06:12.095Z,18.22
2019-04-07T05:07:12.530Z,18.29
2019-04-07T05:08:11.704Z,18.36
2019-04-07T05:09:10.996Z,18.37
2019-04-07T05:10:11.147Z,18.4
2019-04-07T05:11:11.130Z,18.44
2019-04-07T05:12:10.709Z,18.49
2019-04-07T05:13:11.066Z,18.51
2019-04-07T05:14:11.611Z,18.51
2019-04-07T05:15:11.033Z,18.56
2019-04-07T05:16:12.066Z,18.57
2019-04-07T05:17:12.887Z,18.62
2019-04-07T05:18:11.051Z,18.62
2019-04-07T05:19:11.274Z,18.63
2019-04-07T05:20:11.178Z,18.67
2019-04-07T05:21:10.863Z,18.67
2019-04-07T05:22:11.480Z,18.66
2019-04-07T05:23:11.148Z,18.71
2019-04-07T05:24:11.849Z,18.7
2019-04-07T05:25:11.025Z,18.71
2019-04-07T05:26:11.221Z,18.73
2019-04-07T05:27:11.632Z,18.73
2019-04-07T05:28:12.366Z,18.74
2019-04-07T05:29:11.074Z,18.77
2019-04-07T05:30:11.450Z,18.77
2019-04-07T05:31:10.721Z,18.78
2019-04-07T05:32:11.321Z,18.8
2019-04-07T05:33:11.256Z,18.81
2019-04-07T05:34:10.945Z,18.8
2019-04-07T05:35:10.829Z,18.8
2019-04-07T05:36:10.880Z,18.8
2019-04-07T05:37:11.615Z,18.83
2019-04-07T05:38:11.519Z,18.8
2019-04-07T05:39:10.846Z,18.8
2019-04-07T05:40:11.529Z,18.83
2019-04-07T05:41:10.913Z,18.81
2019-04-07T05:42:11.045Z,18.84
2019-04-07T05:43:10.948Z,18.84
2019-04-07T05:44:11.550Z,18.83
2019-04-07T05:45:12.578Z,18.85
2019-04-07T05:46:11.170Z,18.83
2019-04-07T05:47:15.726Z,18.85
2019-04-07T05:48:11.082Z,18.85
2019-04-07T05:49:11.176Z,18.85
2019-04-07T05:50:11.386Z,18.85
2019-04-07T05:51:10.761Z,18.85
2019-04-07T05:52:10.767Z,18.85
2019-04-07T05:53:14.983Z,18.85
2019-04-07T05:54:12.640Z,18.87
2019-04-07T05:55:11.224Z,18.85
2019-04-07T05:56:11.507Z,18.85
2019-04-07T05:57:10.912Z,18.85
2019-04-07T05:58:15.863Z,18.88
2019-04-07T05:59:15.815Z,18.85
2019-04-07T06:00:17.171Z,18.87
2019-04-07T06:01:10.870Z,18.87
2019-04-07T06:02:12.150Z,18.87
2019-04-07T06:03:12.323Z,18.87
2019-04-07T06:04:19.639Z,18.88
2019-04-07T06:05:12.194Z,18.88
2019-04-07T06:06:11.714Z,18.87
2019-04-07T06:07:10.755Z,18.87
2019-04-07T06:09:11.438Z,18.88
2019-04-07T06:10:10.795Z,18.85
2019-04-07T06:11:11.710Z,18.87
2019-04-07T06:12:11.150Z,18.88
2019-04-07T06:13:15.917Z,18.85
2019-04-07T06:14:17.527Z,18.87
2019-04-07T06:15:11.891Z,18.85
2019-04-07T06:16:10.910Z,18.85
2019-04-07T06:17:11.072Z,18.87
2019-04-07T06:18:11.894Z,18.88
2019-04-07T06:19:10.810Z,18.88
2019-04-07T06:20:19.115Z,18.84
2019-04-07T06:21:17.509Z,18.88
2019-04-07T06:22:11.306Z,18.88
2019-04-07T06:23:11.762Z,18.85
2019-04-07T06:24:11.526Z,18.85
2019-04-07T06:25:11.393Z,18.87
2019-04-07T06:26:13.359Z,18.87
2019-04-07T06:27:18.979Z,18.87
2019-04-07T06:28:10.879Z,18.9
2019-04-07T06:29:11.823Z,18.85
2019-04-07T06:30:11.957Z,18.88
2019-04-07T06:31:10.819Z,18.87
2019-04-07T06:32:11.661Z,18.87
2019-04-07T06:33:11.384Z,18.87
2019-04-07T06:34:12.336Z,18.87
2019-04-07T06:35:14.465Z,18.87
2019-04-07T06:36:11.724Z,18.85
2019-04-07T06:37:10.995Z,18.85
2019-04-07T06:38:10.883Z,18.87
2019-04-07T06:39:11.195Z,18.85
2019-04-07T06:40:11.350Z,18.84
2019-04-07T06:41:11.652Z,18.87
2019-04-07T06:42:11.116Z,18.87
2019-04-07T06:43:10.869Z,18.84
2019-04-07T06:44:24.411Z,18.85
2019-04-07T06:45:13.030Z,18.85
2019-04-07T06:46:10.843Z,18.87
2019-04-07T06:47:10.808Z,18.87
2019-04-07T06:48:11.704Z,18.84
2019-04-07T06:49:15.269Z,18.85
2019-04-07T06:50:17.722Z,18.87
2019-04-07T06:51:10.867Z,18.84
2019-04-07T06:52:12.241Z,18.85
2019-04-07T06:53:21.219Z,18.85
2019-04-07T06:54:11.531Z,18.85
2019-04-07T06:55:10.914Z,18.83
2019-04-07T06:56:11.236Z,18.85
2019-04-07T06:57:12.397Z,18.87
2019-04-07T06:58:12.180Z,18.83
2019-04-07T06:59:16.766Z,18.83
2019-04-07T07:00:11.279Z,18.84
2019-04-07T07:01:12.008Z,18.83
2019-04-07T07:02:10.815Z,18.84
2019-04-07T07:03:11.785Z,18.84
2019-04-07T07:04:14.167Z,18.81
2019-04-07T07:05:14.577Z,18.83
2019-04-07T07:06:11.334Z,18.84
2019-04-07T07:07:10.757Z,18.83
2019-04-07T07:08:12.861Z,18.83
2019-04-07T07:09:16.756Z,18.84
2019-04-07T07:10:11.807Z,18.83
2019-04-07T07:11:34.616Z,18.84
2019-04-07T07:12:42.084Z,18.83
2019-04-07T07:13:36.905Z,18.81
2019-04-07T07:15:11.378Z,18.83
2019-04-07T07:16:18.293Z,18.84
2019-04-07T07:17:22.557Z,18.84
2019-04-07T07:18:11.611Z,18.84
2019-04-07T07:19:10.968Z,18.83
2019-04-07T07:20:12.561Z,18.83
2019-04-07T07:21:12.140Z,18.83
2019-04-07T07:22:18.730Z,18.85
2019-04-07T07:23:17.047Z,18.83
2019-04-07T07:24:27.458Z,18.83
2019-04-07T07:25:13.469Z,18.83
2019-04-07T07:26:11.767Z,18.83
2019-04-07T07:27:12.541Z,18.83
2019-04-07T07:28:13.815Z,18.84
2019-04-07T07:29:19.286Z,18.81
2019-04-07T07:30:10.862Z,18.8
2019-04-07T07:31:10.944Z,18.83
2019-04-07T07:32:12.786Z,18.81
2019-04-07T07:33:11.422Z,18.83
2019-04-07T07:34:12.038Z,18.83
2019-04-07T07:35:16.704Z,18.81
2019-04-07T07:36:10.948Z,18.84
2019-04-07T07:37:13.433Z,18.83
2019-04-07T07:38:10.709Z,18.84
2019-04-07T07:39:14.791Z,18.83
2019-04-07T07:40:18.699Z,18.83
2019-04-07T07:41:11.363Z,18.83
2019-04-07T07:42:12.373Z,18.85
2019-04-07T07:43:10.854Z,18.84
2019-04-07T07:44:10.843Z,18.81
2019-04-07T07:45:14.269Z,18.83
2019-04-07T07:46:10.771Z,18.84
2019-04-07T07:47:12.116Z,18.84
2019-04-07T07:48:11.102Z,18.84
2019-04-07T07:49:12.626Z,18.84
2019-04-07T07:50:12.347Z,18.84
2019-04-07T07:51:16.623Z,18.84
2019-04-07T07:52:21.635Z,18.84
2019-04-07T07:53:11.648Z,18.83
2019-04-07T07:54:17.412Z,18.84
2019-04-07T07:55:12.100Z,18.84
2019-04-07T07:56:14.544Z,18.83
2019-04-07T07:57:11.373Z,18.83
2019-04-07T07:58:10.703Z,18.83
2019-04-07T07:59:11.301Z,18.81
2019-04-07T08:00:11.515Z,18.83
2019-04-07T08:01:18.016Z,18.84
2019-04-07T08:02:21.910Z,18.81
2019-04-07T08:03:10.767Z,18.84
2019-04-07T08:04:10.846Z,18.81
2019-04-07T08:05:11.637Z,18.83
2019-04-07T08:06:11.930Z,18.83
2019-04-07T08:07:16.843Z,18.81
2019-04-07T08:08:11.986Z,18.83
2019-04-07T08:09:27.294Z,18.83
2019-04-07T08:10:11.165Z,18.81
2019-04-07T08:11:18.867Z,18.81
2019-04-07T08:12:11.799Z,18.81
2019-04-07T08:13:11.499Z,18.81
2019-04-07T08:14:18.617Z,18.81
2019-04-07T08:15:10.747Z,18.8
2019-04-07T08:16:11.394Z,18.81
2019-04-07T08:17:12.374Z,18.81
2019-04-07T08:18:12.590Z,18.81
2019-04-07T08:19:11.219Z,18.78
2019-04-07T08:20:13.262Z,18.83
2019-04-07T08:21:20.866Z,18.83
2019-04-07T08:22:11.873Z,18.83
2019-04-07T08:23:14.502Z,18.83
2019-04-07T08:24:19.404Z,18.83
2019-04-07T08:25:11.393Z,18.87
2019-04-07T08:26:13.593Z,18.84
2019-04-07T08:27:11.728Z,18.85
2019-04-07T08:28:10.862Z,18.88
2019-04-07T08:29:15.686Z,18.88
2019-04-07T08:30:14.159Z,18.9
2019-04-07T08:31:11.958Z,18.92
2019-04-07T08:32:11.307Z,18.91
2019-04-07T08:33:10.974Z,18.94
2019-04-07T08:34:11.145Z,18.95
2019-04-07T08:35:10.742Z,18.97
2019-04-07T08:36:15.169Z,19.02
2019-04-07T08:37:16.388Z,19.02
2019-04-07T08:38:16.267Z,19.03
2019-04-07T08:39:37.582Z,19.05
2019-04-07T08:40:12.091Z,19.06
2019-04-07T08:41:16.916Z,19.09
2019-04-07T08:42:20.933Z,19.15
2019-04-07T08:43:12.645Z,19.15
2019-04-07T08:44:12.353Z,19.18
2019-04-07T08:45:11.788Z,19.22
2019-04-07T08:46:11.890Z,19.23
2019-04-07T08:47:23.614Z,19.27
2019-04-07T08:48:11.141Z,19.27
2019-04-07T08:49:11.941Z,19.3
2019-04-07T08:50:10.879Z,19.32
2019-04-07T08:51:11.637Z,19.33
2019-04-07T08:52:13.096Z,19.35
2019-04-07T08:53:15.015Z,19.36
2019-04-07T08:54:18.614Z,19.4
2019-04-07T08:55:10.703Z,19.43
2019-04-07T08:56:12.085Z,19.45
2019-04-07T08:57:10.940Z,19.47
2019-04-07T08:58:39.795Z,19.49
2019-04-07T08:59:18.397Z,19.49
2019-04-07T09:00:18.524Z,19.5
2019-04-07T09:01:10.915Z,19.52
2019-04-07T09:02:11.650Z,19.57
2019-04-07T09:03:17.346Z,19.57
2019-04-07T09:04:18.949Z,19.6
2019-04-07T09:05:11.869Z,19.6
2019-04-07T09:06:11.176Z,19.61
2019-04-07T09:07:10.968Z,19.65
2019-04-07T09:08:10.788Z,19.63
2019-04-07T09:09:12.288Z,19.65
2019-04-07T09:10:11.361Z,19.67
2019-04-07T09:11:13.411Z,19.68
2019-04-07T09:12:11.628Z,19.7
2019-04-07T09:13:10.720Z,19.71
2019-04-07T09:14:11.029Z,19.74
2019-04-07T09:15:13.292Z,19.77
2019-04-07T09:16:18.662Z,19.78
2019-04-07T09:17:11.763Z,19.78
2019-04-07T09:18:19.302Z,19.81
2019-04-07T09:19:10.642Z,19.81
2019-04-07T09:20:12.278Z,19.82
2019-04-07T09:21:40.215Z,19.82
2019-04-07T09:22:12.948Z,19.81
2019-04-07T09:23:12.531Z,19.82
2019-04-07T09:24:12.729Z,19.82
2019-04-07T09:25:12.119Z,19.84
2019-04-07T09:26:12.520Z,19.84
2019-04-07T09:27:25.832Z,19.85
2019-04-07T09:28:12.023Z,19.85
2019-04-07T09:29:10.691Z,19.86
2019-04-07T09:30:11.429Z,19.88
2019-04-07T09:31:10.740Z,19.89
2019-04-07T09:32:11.033Z,19.89
2019-04-07T09:33:12.609Z,19.93
2019-04-07T09:34:11.767Z,19.92
2019-04-07T09:35:11.460Z,19.95
2019-04-07T09:36:11.374Z,19.95
2019-04-07T09:37:10.970Z,19.98
2019-04-07T09:38:11.232Z,19.99
2019-04-07T09:39:13.190Z,19.99
2019-04-07T09:40:17.739Z,19.99
2019-04-07T09:41:10.951Z,20.01
2019-04-07T09:42:10.801Z,20.01
2019-04-07T09:43:11.323Z,20.02
2019-04-07T09:44:12.642Z,20.04
2019-04-07T09:45:13.965Z,20.04
2019-04-07T09:46:12.143Z,20.02
2019-04-07T09:47:13.552Z,20.04
2019-04-07T09:48:10.757Z,20.04
2019-04-07T09:49:10.831Z,20.08
2019-04-07T09:50:11.575Z,20.08
2019-04-07T09:51:11.374Z,20.09
2019-04-07T09:52:18.080Z,20.09
2019-04-07T09:53:10.802Z,20.08
2019-04-07T09:54:12.271Z,20.11
2019-04-07T09:55:12.140Z,20.11
2019-04-07T09:56:13.241Z,20.11
2019-04-07T09:57:11.883Z,20.11
2019-04-07T09:58:12.221Z,20.11
2019-04-07T09:59:20.498Z,20.11
2019-04-07T10:00:12.745Z,20.11
2019-04-07T10:01:21.133Z,20.13
2019-04-07T10:02:13.335Z,20.12
2019-04-07T10:03:16.645Z,20.13
2019-04-07T10:04:12.381Z,20.11
2019-04-07T10:05:11.990Z,20.15
2019-04-07T10:06:10.860Z,20.13
2019-04-07T10:07:18.324Z,20.13
2019-04-07T10:08:20.417Z,20.16
2019-04-07T10:09:11.840Z,20.12
2019-04-07T10:10:17.276Z,20.15
2019-04-07T10:11:10.820Z,20.15
2019-04-07T10:12:10.619Z,20.13
2019-04-07T10:13:11.320Z,20.16
2019-04-07T10:14:10.788Z,20.16
2019-04-07T10:15:13.854Z,20.15
2019-04-07T10:16:12.215Z,20.15
2019-04-07T10:17:12.074Z,20.19
2019-04-07T10:18:10.842Z,20.18
2019-04-07T10:19:11.181Z,20.16
2019-04-07T10:20:12.597Z,20.18
2019-04-07T10:21:11.488Z,20.18
2019-04-07T10:22:10.887Z,20.16
2019-04-07T10:23:11.097Z,20.15
2019-04-07T10:24:10.643Z,20.16
2019-04-07T10:25:11.007Z,20.19
2019-04-07T10:26:10.667Z,20.16
2019-04-07T10:27:11.118Z,20.19
2019-04-07T10:28:14.014Z,20.18
2019-04-07T10:29:12.266Z,20.19
2019-04-07T10:30:11.270Z,20.16
2019-04-07T10:31:11.578Z,20.18
2019-04-07T10:32:12.548Z,20.18
2019-04-07T10:33:10.703Z,20.2
2019-04-07T10:34:13.736Z,20.2
2019-04-07T10:35:11.503Z,20.2
2019-04-07T10:36:11.504Z,20.23
2019-04-07T10:37:10.691Z,20.22
2019-04-07T10:38:12.636Z,20.2
2019-04-07T10:39:10.623Z,20.2
2019-04-07T10:40:24.491Z,20.23
2019-04-07T10:41:11.990Z,20.22
2019-04-07T10:42:12.319Z,20.22
2019-04-07T10:43:12.898Z,20.23
2019-04-07T10:44:10.701Z,20.22
2019-04-07T10:45:12.174Z,20.25
2019-04-07T10:46:12.490Z,20.23
2019-04-07T10:47:12.062Z,20.27
2019-04-07T10:48:11.895Z,20.26
2019-04-07T10:49:11.519Z,20.25
2019-04-07T10:50:11.607Z,20.27
2019-04-07T10:51:10.873Z,20.25
2019-04-07T10:52:11.605Z,20.25
2019-04-07T10:53:11.622Z,20.26
2019-04-07T10:54:10.656Z,20.27
2019-04-07T10:55:10.588Z,20.26
2019-04-07T10:56:10.692Z,20.3
2019-04-07T10:57:12.408Z,20.26
2019-04-07T10:58:11.715Z,20.27
2019-04-07T10:59:11.665Z,20.25
2019-04-07T11:00:11.275Z,20.25
2019-04-07T11:01:11.573Z,20.26
2019-04-07T11:02:12.168Z,20.26
2019-04-07T11:03:12.242Z,20.26
2019-04-07T11:04:10.846Z,20.26
2019-04-07T11:05:10.559Z,20.26
2019-04-07T11:06:12.766Z,20.25
2019-04-07T11:07:10.910Z,20.25
2019-04-07T11:08:11.840Z,20.23
2019-04-07T11:09:11.429Z,20.23
2019-04-07T11:10:12.663Z,20.23
2019-04-07T11:11:10.641Z,20.23
2019-04-07T11:12:11.139Z,20.22
2019-04-07T11:13:16.938Z,20.18
2019-04-07T11:14:11.619Z,20.19
2019-04-07T11:15:10.858Z,20.2
2019-04-07T11:16:11.181Z,20.19
2019-04-07T11:17:10.716Z,20.19
2019-04-07T11:18:10.741Z,20.2
2019-04-07T11:19:11.299Z,20.2
2019-04-07T11:20:11.779Z,20.2
2019-04-07T11:21:11.987Z,20.2
2019-04-07T11:22:10.758Z,20.23
2019-04-07T11:23:12.080Z,20.23
2019-04-07T11:24:10.807Z,20.25
2019-04-07T11:25:12.053Z,20.22
2019-04-07T11:26:11.449Z,20.23
2019-04-07T11:27:11.509Z,20.25
2019-04-07T11:28:12.336Z,20.25
2019-04-07T11:29:10.586Z,20.26
2019-04-07T11:30:11.680Z,20.29
2019-04-07T11:31:10.822Z,20.25
2019-04-07T11:32:10.715Z,20.26
2019-04-07T11:33:11.854Z,20.26
2019-04-07T11:34:11.296Z,20.25
2019-04-07T11:35:11.406Z,20.3
2019-04-07T11:36:11.028Z,20.27
2019-04-07T11:37:14.457Z,20.27
2019-04-07T11:38:10.714Z,20.29
2019-04-07T11:39:12.153Z,20.25
2019-04-07T11:40:11.877Z,20.27
2019-04-07T11:41:11.339Z,20.27
2019-04-07T11:42:11.594Z,20.29
2019-04-07T11:43:11.006Z,20.26
2019-04-07T11:44:10.803Z,20.29
2019-04-07T11:45:11.491Z,20.29
2019-04-07T11:46:12.063Z,20.32
2019-04-07T11:47:11.478Z,20.3
2019-04-07T11:48:10.623Z,20.29
2019-04-07T11:49:13.738Z,20.27
2019-04-07T11:50:10.749Z,20.27
2019-04-07T11:51:10.844Z,20.29
2019-04-07T11:52:11.590Z,20.27
2019-04-07T11:53:11.328Z,20.3
2019-04-07T11:54:10.726Z,20.29
2019-04-07T11:55:11.995Z,20.32
2019-04-07T11:56:11.888Z,20.29
2019-04-07T11:57:11.979Z,20.27
2019-04-07T11:58:36.159Z,20.26
2019-04-07T11:59:10.846Z,20.3
2019-04-07T12:00:12.523Z,20.25
2019-04-07T12:01:16.782Z,20.25
2019-04-07T12:02:11.016Z,20.26
2019-04-07T12:03:12.179Z,20.27
2019-04-07T12:04:17.502Z,20.27
2019-04-07T12:05:10.710Z,20.27
2019-04-07T12:06:23.251Z,20.3
2019-04-07T12:07:12.943Z,20.29
2019-04-07T12:08:11.716Z,20.3
2019-04-07T12:09:12.022Z,20.33
2019-04-07T12:10:12.707Z,20.33
2019-04-07T12:11:18.052Z,20.33
2019-04-07T12:12:12.722Z,20.35
2019-04-07T12:13:10.724Z,20.36
2019-04-07T12:14:17.969Z,20.39
2019-04-07T12:15:10.853Z,20.36
2019-04-07T12:16:10.789Z,20.39
2019-04-07T12:17:15.389Z,20.39
2019-04-07T12:18:20.456Z,20.39
2019-04-07T12:19:12.830Z,20.4
2019-04-07T12:20:11.119Z,20.42
2019-04-07T12:21:27.901Z,20.43
2019-04-07T12:22:14.617Z,20.43
2019-04-07T12:23:10.829Z,20.43
2019-04-07T12:24:10.846Z,20.43
2019-04-07T12:25:10.836Z,20.44
2019-04-07T12:26:10.674Z,20.46
2019-04-07T12:27:13.816Z,20.44
2019-04-07T12:28:21.460Z,20.46
2019-04-07T12:29:10.995Z,20.47
2019-04-07T12:30:10.696Z,20.46
2019-04-07T12:31:11.733Z,20.47
2019-04-07T12:32:12.071Z,20.47
2019-04-07T12:33:12.435Z,20.5
2019-04-07T12:34:15.702Z,20.48
2019-04-07T12:35:11.990Z,20.5
2019-04-07T12:36:10.621Z,20.48
2019-04-07T12:37:11.733Z,20.5
2019-04-07T12:38:13.770Z,20.51
2019-04-07T12:39:19.149Z,20.5
2019-04-07T12:40:11.164Z,20.53
2019-04-07T12:41:24.608Z,20.54
2019-04-07T12:42:12.505Z,20.53
2019-04-07T12:43:15.632Z,20.57
2019-04-07T12:44:12.664Z,20.59
2019-04-07T12:45:13.481Z,20.55
2019-04-07T12:46:11.827Z,20.59
2019-04-07T12:47:13.585Z,20.59
2019-04-07T12:48:11.811Z,20.6
2019-04-07T12:49:10.760Z,20.63
2019-04-07T12:50:22.041Z,20.66
2019-04-07T12:51:10.552Z,20.67
2019-04-07T12:52:10.577Z,20.66
2019-04-07T12:53:10.648Z,20.7
2019-04-07T12:54:11.976Z,20.64
2019-04-07T12:55:19.473Z,20.7
2019-04-07T12:56:11.610Z,20.7
2019-04-07T12:57:10.791Z,20.7
2019-04-07T12:58:13.176Z,20.72